Time;durP1;ratioP1;P1;durP2;ratioP2;P2;SDS_P1;SDS_P2;PMS_P1;PMS_P2;Temp;Humidity;BMP_temperature;BMP_pressure;BME280_temperature;BME280_humidity;BME280_pressure;Samples;Min_cycle;Max_cycle;Signal;HPM_P1;HPM_P2
2023/10/07 00:01:55;;;;;;;;;;;16.20;51.20;;;;;;5022948;28;115052;-82
2023/10/07 00:04:22;;;;;;;;;;;16.20;51.10;;;;;;5024981;28;114266;-81
2023/10/07 00:06:50;;;;;;;;;;;16.20;51.40;;;;;;5024150;28;114993;-81
2023/10/07 00:09:22;;;;;;;;;;;16.20;51.50;;;;;;5023758;28;115815;-81
2023/10/07 00:11:49;;;;;;;;;;;16.30;51.40;;;;;;5024990;28;114028;-82
2023/10/07 00:14:16;;;;;;;;;;;16.30;51.30;;;;;;5025075;28;114006;-81
2023/10/07 00:16:46;;;;;;;;;;;16.20;50.90;;;;;;5005929;28;114915;-82
2023/10/07 00:19:13;;;;;;;;;;;16.10;51.10;;;;;;5006293;28;114535;-82
2023/10/07 00:21:59;;;;;;;;;;;16.20;51.10;;;;;;5005366;28;114381;-82
2023/10/07 00:24:26;;;;;;;;;;;16.00;51.00;;;;;;5024862;28;114090;-80
2023/10/07 00:26:55;;;;;;;;;;;16.00;51.00;;;;;;5023026;28;115956;-81
2023/10/07 00:29:23;;;;;;;;;;;15.90;51.20;;;;;;5023890;28;114542;-81
2023/10/07 00:31:52;;;;;;;;;;;15.90;51.40;;;;;;5007098;28;114421;-82
2023/10/07 00:34:27;;;;;;;;;;;16.00;51.40;;;;;;5006660;28;114338;-81
2023/10/07 00:36:58;;;;;;;;;;;15.90;50.80;;;;;;5023709;28;114916;-81
2023/10/07 00:39:31;;;;;;;;;;;15.80;51.30;;;;;;4989127;28;117432;-82
2023/10/07 00:41:58;;;;;;;;;;;15.80;51.30;;;;;;4989984;28;114170;-81
2023/10/07 00:44:32;;;;;;;;;;;15.70;51.20;;;;;;5024782;28;114131;-82
2023/10/07 00:52:29;;;;;;;;;;;15.30;51.60;;;;;;5008500;28;114372;-81
2023/10/07 01:03:16;;;;;;;;;;;15.70;51.80;;;;;;5014389;28;116381;-81
2023/10/07 01:06:10;;;;;;;;;;;15.80;51.80;;;;;;5006386;28;114331;-80
2023/10/07 01:08:36;;;;;;;;;;;16.00;51.80;;;;;;5004974;28;116102;-81
2023/10/07 01:11:09;;;;;;;;;;;16.10;51.80;;;;;;5005711;28;117883;-81
2023/10/07 01:13:44;;;;;;;;;;;16.10;51.50;;;;;;5007295;28;114358;-81
2023/10/07 01:16:14;;;;;;;;;;;16.10;51.70;;;;;;5024094;28;114771;-81
2023/10/07 01:18:41;;;;;;;;;;;16.10;51.80;;;;;;5023256;28;115005;-81
2023/10/07 01:21:11;;;;;;;;;;;16.20;51.40;;;;;;4984647;28;118282;-80
2023/10/07 01:23:44;;;;;;;;;;;16.00;51.40;;;;;;5004075;28;114217;-81
2023/10/07 01:26:15;;;;;;;;;;;15.90;51.40;;;;;;5002198;28;114383;-80
2023/10/07 01:28:43;;;;;;;;;;;15.80;51.60;;;;;;4984869;28;115386;-81
2023/10/07 01:31:13;;;;;;;;;;;15.90;51.80;;;;;;5003156;28;114534;-80
2023/10/07 01:33:47;;;;;;;;;;;16.00;51.70;;;;;;5006062;28;114195;-81
2023/10/07 01:36:19;;;;;;;;;;;16.00;51.50;;;;;;5007919;28;114046;-81
2023/10/07 01:38:52;;;;;;;;;;;15.90;51.70;;;;;;5006414;28;116087;-80
2023/10/07 01:41:20;;;;;;;;;;;16.00;51.50;;;;;;5006460;28;114688;-81
2023/10/07 01:44:04;;;;;;;;;;;16.00;51.70;;;;;;5038934;27;114330;-82
2023/10/07 01:46:32;;;;;;;;;;;16.00;51.80;;;;;;5006882;28;114378;-82
2023/10/07 01:49:16;;;;;;;;;;;16.10;51.60;;;;;;5005278;28;114910;-82
2023/10/07 01:51:44;;;;;;;;;;;16.10;51.70;;;;;;5006579;28;115622;-81
2023/10/07 01:54:12;;;;;;;;;;;16.00;51.10;;;;;;5006994;28;114377;-81
2023/10/07 01:56:39;;;;;;;;;;;15.90;51.30;;;;;;5007406;28;114316;-81
2023/10/07 02:01:50;;;;;;;;;;;15.30;51.20;;;;;;4990175;28;115800;-82
2023/10/07 02:04:18;;;;;;;;;;;15.30;51.80;;;;;;5005552;28;114372;-81
2023/10/07 02:06:51;;;;;;;;;;;15.40;51.90;;;;;;5006650;28;114222;-82
2023/10/07 02:09:29;;;;;;;;;;;15.40;51.50;;;;;;5005491;28;115497;-82
2023/10/07 02:11:57;;;;;;;;;;;15.30;51.80;;;;;;5006012;28;114819;-81
2023/10/07 02:14:25;;;;;;;;;;;15.30;52.00;;;;;;5007043;28;114419;-81
2023/10/07 02:16:52;;;;;;;;;;;15.30;51.90;;;;;;5005322;28;114241;-79
2023/10/07 02:19:41;;;;;;;;;;;15.30;52.00;;;;;;4987774;28;117837;-81
2023/10/07 02:22:13;;;;;;;;;;;15.40;52.10;;;;;;5004028;28;116230;-82
2023/10/07 02:24:41;;;;;;;;;;;15.40;51.80;;;;;;5005078;28;114279;-81
2023/10/07 02:27:18;;;;;;;;;;;15.40;52.30;;;;;;5006950;28;114245;-81
2023/10/07 02:29:48;;;;;;;;;;;15.60;52.40;;;;;;5005946;28;115226;-82
2023/10/07 02:32:17;;;;;;;;;;;15.70;52.20;;;;;;4988563;28;114317;-81
2023/10/07 02:34:57;;;;;;;;;;;15.80;52.20;;;;;;5006254;28;114305;-81
2023/10/07 02:37:31;;;;;;;;;;;15.80;51.90;;;;;;5006662;28;113996;-80
2023/10/07 02:40:17;;;;;;;;;;;15.90;52.00;;;;;;5003806;28;115066;-82
2023/10/07 02:42:46;;;;;;;;;;;15.90;52.10;;;;;;5005582;28;114544;-82
2023/10/07 02:45:20;;;;;;;;;;;16.00;51.90;;;;;;5005248;28;114251;-81
2023/10/07 02:47:50;;;;;;;;;;;16.00;52.00;;;;;;5006318;28;114206;-82
2023/10/07 02:50:17;;;;;;;;;;;16.00;52.00;;;;;;5004424;28;115064;-82
2023/10/07 02:52:46;;;;;;;;;;;16.10;52.00;;;;;;5005387;28;115231;-82
2023/10/07 02:57:45;;;;;;;;;;;16.10;51.80;;;;;;5004940;28;114447;-82
2023/10/07 03:00:17;;;;;;;;;;;16.10;51.70;;;;;;5003380;28;114971;-82
2023/10/07 03:02:50;;;;;;;;;;;16.00;51.70;;;;;;5004990;28;114534;-80
2023/10/07 03:05:29;;;;;;;;;;;16.00;51.40;;;;;;5004887;28;114043;-80
2023/10/07 03:08:02;;;;;;;;;;;15.90;51.60;;;;;;5005782;28;113948;-82
2023/10/07 03:10:45;;;;;;;;;;;15.90;51.90;;;;;;5003687;28;115845;-81
2023/10/07 03:13:15;;;;;;;;;;;15.90;51.80;;;;;;5004719;28;115008;-81
2023/10/07 03:15:46;;;;;;;;;;;15.90;51.60;;;;;;5004538;28;114395;-82
2023/10/07 03:18:23;;;;;;;;;;;15.80;51.70;;;;;;5006135;28;114448;-81
2023/10/07 03:23:45;;;;;;;;;;;15.90;52.00;;;;;;5003489;28;118001;-82
2023/10/07 03:26:14;;;;;;;;;;;16.00;52.00;;;;;;5005343;28;114518;-82
2023/10/07 03:28:51;;;;;;;;;;;16.10;52.00;;;;;;5005297;28;114042;-82
2023/10/07 03:31:20;;;;;;;;;;;16.10;52.00;;;;;;5003796;28;114980;-82
2023/10/07 03:33:58;;;;;;;;;;;16.20;52.00;;;;;;5005462;28;114579;-81
2023/10/07 03:36:41;;;;;;;;;;;16.20;51.80;;;;;;5004567;28;114374;-81
2023/10/07 03:41:47;;;;;;;;;;;16.20;51.70;;;;;;5003190;28;115942;-81
2023/10/07 03:44:15;;;;;;;;;;;16.10;51.30;;;;;;5003093;28;115723;-81
2023/10/07 03:46:43;;;;;;;;;;;16.00;51.30;;;;;;5005023;28;114029;-82
2023/10/07 03:49:11;;;;;;;;;;;15.90;51.40;;;;;;5005375;28;114401;-82
2023/10/07 03:51:38;;;;;;;;;;;16.00;51.30;;;;;;5003019;28;114799;-82
2023/10/07 03:56:51;;;;;;;;;;;15.90;51.20;;;;;;5004675;28;114281;-82
2023/10/07 03:59:18;;;;;;;;;;;15.90;50.80;;;;;;5005272;28;114398;-81
2023/10/07 04:01:45;;;;;;;;;;;15.80;50.50;;;;;;5004281;28;114889;-82
2023/10/07 04:04:13;;;;;;;;;;;15.70;50.50;;;;;;5003038;28;115514;-82
2023/10/07 04:06:41;;;;;;;;;;;15.60;50.60;;;;;;5004615;28;114404;-82
2023/10/07 04:09:11;;;;;;;;;;;15.40;50.30;;;;;;5005549;28;114913;-82
2023/10/07 04:11:39;;;;;;;;;;;15.30;50.30;;;;;;5002935;28;117624;-81
2023/10/07 04:14:09;;;;;;;;;;;15.30;50.50;;;;;;5004187;28;115054;-82
2023/10/07 04:16:36;;;;;;;;;;;15.20;50.40;;;;;;5004166;28;114444;-82
2023/10/07 04:19:29;;;;;;;;;;;15.20;50.50;;;;;;5003799;28;114356;-82
2023/10/07 04:21:55;;;;;;;;;;;15.20;50.30;;;;;;5021415;28;114931;-81
2023/10/07 04:24:28;;;;;;;;;;;15.10;50.50;;;;;;5025046;28;114724;-82
2023/10/07 04:27:03;;;;;;;;;;;15.10;50.70;;;;;;5006996;28;114531;-80
2023/10/07 04:29:31;;;;;;;;;;;15.20;50.80;;;;;;4991180;28;114260;-81
2023/10/07 04:31:59;;;;;;;;;;;15.30;50.70;;;;;;5006010;28;115689;-81
2023/10/07 04:34:26;;;;;;;;;;;15.30;50.90;;;;;;5006270;28;115233;-81
2023/10/07 04:39:31;;;;;;;;;;;15.50;50.40;;;;;;5024870;28;114407;-81
2023/10/07 04:41:59;;;;;;;;;;;15.40;50.30;;;;;;5023414;28;116256;-82
2023/10/07 04:52:31;;;;;;;;;;;15.10;50.60;;;;;;5023390;28;116691;-81
2023/10/07 04:54:59;;;;;;;;;;;15.10;50.70;;;;;;5023168;28;116473;-81
2023/10/07 04:57:44;;;;;;;;;;;15.20;50.70;;;;;;5024305;28;114176;-82
2023/10/07 05:00:28;;;;;;;;;;;15.20;50.60;;;;;;5024489;28;114313;-82
2023/10/07 05:02:57;;;;;;;;;;;15.30;50.70;;;;;;4987956;28;114926;-82
2023/10/07 05:05:29;;;;;;;;;;;15.30;50.80;;;;;;5005713;28;114730;-82
2023/10/07 05:07:58;;;;;;;;;;;15.50;50.80;;;;;;5007414;28;114200;-82
2023/10/07 05:10:29;;;;;;;;;;;15.60;50.70;;;;;;5010103;28;114435;-82
2023/10/07 05:13:01;;;;;;;;;;;15.70;50.30;;;;;;5026551;28;114879;-82
2023/10/07 05:15:30;;;;;;;;;;;15.70;50.50;;;;;;5027007;28;115218;-82
2023/10/07 05:18:01;;;;;;;;;;;15.70;50.50;;;;;;5027551;28;114302;-82
2023/10/07 05:20:29;;;;;;;;;;;15.70;50.20;;;;;;5027199;28;114793;-82
2023/10/07 05:22:56;;;;;;;;;;;15.80;50.30;;;;;;5026462;28;117056;-82
2023/10/07 05:25:24;;;;;;;;;;;15.80;50.00;;;;;;5009229;28;114937;-82
2023/10/07 05:27:51;;;;;;;;;;;15.70;49.60;;;;;;5027790;28;114264;-82
2023/10/07 05:30:18;;;;;;;;;;;15.50;50.00;;;;;;5027758;28;114260;-82
2023/10/07 05:32:48;;;;;;;;;;;15.40;50.10;;;;;;5025798;28;115532;-82
2023/10/07 05:35:18;;;;;;;;;;;15.20;50.50;;;;;;5008941;28;114708;-83
2023/10/07 05:37:46;;;;;;;;;;;15.20;50.60;;;;;;5027500;28;114223;-81
2023/10/07 05:40:14;;;;;;;;;;;15.20;50.90;;;;;;5027101;28;114162;-82
2023/10/07 05:42:42;;;;;;;;;;;15.30;51.10;;;;;;5026309;28;114915;-83
2023/10/07 05:45:09;;;;;;;;;;;15.50;51.10;;;;;;5026250;28;114750;-81
2023/10/07 05:47:36;;;;;;;;;;;15.60;50.90;;;;;;4992513;28;114403;-82
2023/10/07 05:50:04;;;;;;;;;;;15.70;51.00;;;;;;5027550;28;114128;-82
2023/10/07 05:52:32;;;;;;;;;;;15.80;51.00;;;;;;4991055;28;115400;-81
2023/10/07 05:54:59;;;;;;;;;;;15.80;50.60;;;;;;5025972;28;117029;-82
2023/10/07 05:57:27;;;;;;;;;;;15.80;50.80;;;;;;5026311;28;114338;-83
2023/10/07 05:59:54;;;;;;;;;;;15.90;50.90;;;;;;4991978;28;114193;-82
2023/10/07 06:02:21;;;;;;;;;;;16.00;50.50;;;;;;5007876;28;116248;-82
2023/10/07 06:04:49;;;;;;;;;;;15.80;50.40;;;;;;5025887;28;114492;-82
2023/10/07 06:07:20;;;;;;;;;;;15.70;51.00;;;;;;5026749;28;114083;-82
2023/10/07 06:09:47;;;;;;;;;;;15.80;51.00;;;;;;5027588;28;114197;-81
2023/10/07 06:12:15;;;;;;;;;;;15.90;50.90;;;;;;5008259;28;115020;-81
2023/10/07 06:14:42;;;;;;;;;;;16.00;50.80;;;;;;5008484;28;114968;-82
2023/10/07 06:17:11;;;;;;;;;;;16.00;50.80;;;;;;5026285;28;114375;-82
2023/10/07 06:19:40;;;;;;;;;;;16.00;50.80;;;;;;5025291;27;114204;-82
2023/10/07 06:22:15;;;;;;;;;;;16.00;51.00;;;;;;5024772;28;114860;-82
2023/10/07 06:24:42;;;;;;;;;;;16.20;50.90;;;;;;4990958;28;114671;-83
2023/10/07 06:27:13;;;;;;;;;;;16.20;50.90;;;;;;5008478;28;114497;-82
2023/10/07 06:29:43;;;;;;;;;;;16.30;50.90;;;;;;5008714;28;114362;-81
2023/10/07 06:32:23;;;;;;;;;;;16.30;50.90;;;;;;5025500;28;114848;-81
2023/10/07 06:34:59;;;;;;;;;;;16.30;50.60;;;;;;5025602;28;114657;-81
2023/10/07 06:37:30;;;;;;;;;;;16.30;50.80;;;;;;5025810;28;114312;-81
2023/10/07 06:40:00;;;;;;;;;;;16.30;50.70;;;;;;5008714;28;114372;-81
2023/10/07 06:42:28;;;;;;;;;;;16.30;50.70;;;;;;5006926;28;116023;-81
2023/10/07 06:44:55;;;;;;;;;;;16.30;50.40;;;;;;5025130;28;114682;-82
2023/10/07 06:47:24;;;;;;;;;;;16.20;50.60;;;;;;5025355;28;114519;-82
2023/10/07 06:49:52;;;;;;;;;;;16.20;50.50;;;;;;5025836;28;114270;-80
2023/10/07 06:52:22;;;;;;;;;;;16.00;50.40;;;;;;5025037;28;116790;-83
2023/10/07 06:54:49;;;;;;;;;;;16.00;50.70;;;;;;5025044;28;114628;-81
2023/10/07 06:57:34;;;;;;;;;;;16.10;50.90;;;;;;5007612;28;114329;-81
2023/10/07 07:00:09;;;;;;;;;;;16.10;50.90;;;;;;5025825;28;114202;-81
2023/10/07 07:02:36;;;;;;;;;;;16.20;51.00;;;;;;5008211;28;114937;-82
2023/10/07 07:05:11;;;;;;;;;;;16.30;50.90;;;;;;5025213;28;114584;-81
2023/10/07 07:07:38;;;;;;;;;;;16.30;51.00;;;;;;5025554;28;114349;-81
2023/10/07 07:10:07;;;;;;;;;;;16.40;51.00;;;;;;5025165;28;114289;-82
2023/10/07 07:12:34;;;;;;;;;;;16.50;51.00;;;;;;4989957;28;115856;-81
2023/10/07 07:15:26;;;;;;;;;;;16.60;50.80;;;;;;5024860;28;114692;-82
2023/10/07 07:18:04;;;;;;;;;;;16.60;50.90;;;;;;5025314;28;114253;-82
2023/10/07 07:20:55;;;;;;;;;;;16.70;50.90;;;;;;5025254;28;114192;-82
2023/10/07 07:23:25;;;;;;;;;;;16.70;50.90;;;;;;5006816;28;115007;-81
2023/10/07 07:28:31;;;;;;;;;;;16.80;50.80;;;;;;5025906;28;114184;-81
2023/10/07 07:31:02;;;;;;;;;;;16.80;50.70;;;;;;5007545;28;114266;-81
2023/10/07 07:33:34;;;;;;;;;;;16.80;50.80;;;;;;4989760;28;116822;-81
2023/10/07 07:36:09;;;;;;;;;;;16.80;50.90;;;;;;5007557;28;114849;-82
2023/10/07 07:38:45;;;;;;;;;;;16.70;50.70;;;;;;5007965;28;114319;-82
2023/10/07 07:41:29;;;;;;;;;;;16.70;50.90;;;;;;5025294;28;114083;-80
2023/10/07 07:43:59;;;;;;;;;;;16.70;51.00;;;;;;5008980;28;114373;-81
2023/10/07 07:46:29;;;;;;;;;;;16.70;51.00;;;;;;5024769;28;115073;-81
2023/10/07 07:49:05;;;;;;;;;;;16.70;51.10;;;;;;4992281;28;114071;-83
2023/10/07 07:51:41;;;;;;;;;;;16.80;51.10;;;;;;5024997;28;114306;-82
2023/10/07 07:54:08;;;;;;;;;;;16.80;51.00;;;;;;5006231;28;115903;-82
2023/10/07 07:56:36;;;;;;;;;;;16.80;51.10;;;;;;5025082;28;114643;-81
2023/10/07 07:59:18;;;;;;;;;;;16.80;51.00;;;;;;4990545;28;114225;-82
2023/10/07 08:01:50;;;;;;;;;;;16.80;50.90;;;;;;5008890;28;114561;-83
2023/10/07 08:04:19;;;;;;;;;;;16.70;51.00;;;;;;5023421;28;115008;-82
2023/10/07 08:06:49;;;;;;;;;;;16.70;51.00;;;;;;5006339;28;114607;-82
2023/10/07 08:09:19;;;;;;;;;;;16.80;51.00;;;;;;4975751;28;114158;-81
2023/10/07 08:11:47;;;;;;;;;;;16.80;50.90;;;;;;4991427;28;114526;-81
2023/10/07 08:14:14;;;;;;;;;;;16.90;51.00;;;;;;5024126;28;115128;-81
2023/10/07 08:16:50;;;;;;;;;;;17.10;51.00;;;;;;5023758;28;114489;-81
2023/10/07 08:19:20;;;;;;;;;;;17.30;50.90;;;;;;5024623;28;114658;-82
2023/10/07 08:21:51;;;;;;;;;;;17.30;50.70;;;;;;5006374;28;114478;-81
2023/10/07 08:24:31;;;;;;;;;;;17.50;50.60;;;;;;5006229;28;115162;-81
2023/10/07 08:27:03;;;;;;;;;;;17.60;50.40;;;;;;5023588;28;114626;-81
2023/10/07 08:29:34;;;;;;;;;;;17.60;50.30;;;;;;5005614;28;114144;-79
2023/10/07 08:32:13;;;;;;;;;;;17.60;50.30;;;;;;5006125;28;114164;-82
2023/10/07 08:34:47;;;;;;;;;;;17.60;50.20;;;;;;5026144;28;115167;-82
2023/10/07 08:37:16;;;;;;;;;;;17.50;50.20;;;;;;5023654;28;114486;-81
2023/10/07 08:39:46;;;;;;;;;;;17.40;50.20;;;;;;5006495;28;114499;-82
2023/10/07 08:42:17;;;;;;;;;;;17.40;50.10;;;;;;5023287;28;113995;-82
2023/10/07 08:44:45;;;;;;;;;;;17.30;50.20;;;;;;5005775;28;114808;-81
2023/10/07 08:47:12;;;;;;;;;;;17.20;50.30;;;;;;5023490;28;115810;-82
2023/10/07 08:49:39;;;;;;;;;;;17.10;50.30;;;;;;5024094;28;114206;-81
2023/10/07 08:52:08;;;;;;;;;;;17.10;50.40;;;;;;5006540;28;114426;-82
2023/10/07 08:54:44;;;;;;;;;;;17.00;50.50;;;;;;5005230;28;115395;-82
2023/10/07 08:57:34;;;;;;;;;;;17.00;50.60;;;;;;5023215;28;115115;-82
2023/10/07 09:00:10;;;;;;;;;;;17.10;50.60;;;;;;5009174;28;114245;-80
2023/10/07 09:02:39;;;;;;;;;;;17.10;50.70;;;;;;5023831;28;114269;-80
2023/10/07 09:05:15;;;;;;;;;;;17.10;50.70;;;;;;5023055;28;114800;-82
2023/10/07 09:07:48;;;;;;;;;;;17.20;50.70;;;;;;5023228;28;114843;-81
2023/10/07 09:10:17;;;;;;;;;;;17.20;50.60;;;;;;5005577;28;114420;-81
2023/10/07 09:12:50;;;;;;;;;;;17.30;50.60;;;;;;5024337;28;114270;-82
2023/10/07 09:15:21;;;;;;;;;;;17.30;50.70;;;;;;5006267;28;115541;-81
2023/10/07 09:17:48;;;;;;;;;;;17.30;50.60;;;;;;4988314;28;118233;-81
2023/10/07 09:20:29;;;;;;;;;;;17.30;50.70;;;;;;5004597;28;114402;-82
2023/10/07 09:23:35;;;;;;;;;;;17.40;50.60;;;;;;5023664;28;114384;-82
2023/10/07 09:25:53;;;;;;;;;;;17.30;50.60;;;;;;5001721;28;115476;-82
2023/10/07 09:28:30;;;;;;;;;;;17.30;50.50;;;;;;5022986;28;114593;-82
2023/10/07 09:30:59;;;;;;;;;;;17.30;50.60;;;;;;5023681;28;114384;-82
2023/10/07 09:33:34;;;;;;;;;;;17.30;50.70;;;;;;5024165;28;114321;-82
2023/10/07 09:39:02;;;;;;;;;;;17.60;50.70;;;;;;5023197;28;114472;-82
2023/10/07 09:41:32;;;;;;;;;;;17.60;50.60;;;;;;5024392;28;114454;-81
2023/10/07 09:44:00;;;;;;;;;;;17.80;50.60;;;;;;5023892;28;114353;-80
2023/10/07 09:46:27;;;;;;;;;;;17.80;50.40;;;;;;5005000;28;116580;-83
2023/10/07 09:48:57;;;;;;;;;;;17.80;50.30;;;;;;5023215;28;115659;-83
2023/10/07 09:51:47;;;;;;;;;;;17.80;50.30;;;;;;5006322;28;114203;-81
2023/10/07 09:54:26;;;;;;;;;;;17.80;50.10;;;;;;5010628;28;114301;-81
2023/10/07 09:57:14;;;;;;;;;;;17.90;50.00;;;;;;5008787;28;115103;-82
2023/10/07 10:00:37;;;;;;;;;;;18.00;50.20;;;;;;5010304;28;116656;-82
2023/10/07 10:03:03;;;;;;;;;;;18.10;50.00;;;;;;5027232;28;114108;-82
2023/10/07 10:05:50;;;;;;;;;;;18.20;49.90;;;;;;5027277;28;114064;-82
2023/10/07 10:08:19;;;;;;;;;;;18.30;49.90;;;;;;5026416;28;114985;-82
2023/10/07 10:10:49;;;;;;;;;;;18.50;49.80;;;;;;5008106;28;114758;-82
2023/10/07 10:13:28;;;;;;;;;;;18.50;49.40;;;;;;5007912;28;114365;-82
2023/10/07 10:16:00;;;;;;;;;;;18.40;49.40;;;;;;5008082;28;114209;-82
2023/10/07 10:18:38;;;;;;;;;;;18.50;49.50;;;;;;5008259;28;114806;-81
2023/10/07 10:21:12;;;;;;;;;;;18.60;49.50;;;;;;5025382;28;114893;-81
2023/10/07 10:23:40;;;;;;;;;;;18.70;49.50;;;;;;5026336;28;114445;-82
2023/10/07 10:26:27;;;;;;;;;;;18.80;49.40;;;;;;5026230;28;114110;-81
2023/10/07 10:28:59;;;;;;;;;;;18.90;49.40;;;;;;5025800;28;115106;-81
2023/10/07 10:31:32;;;;;;;;;;;19.00;49.20;;;;;;5026067;28;114646;-81
2023/10/07 10:34:04;;;;;;;;;;;19.00;49.10;;;;;;5026160;28;114605;-82
2023/10/07 10:36:35;;;;;;;;;;;19.10;49.00;;;;;;4993120;28;114496;-82
2023/10/07 10:39:05;;;;;;;;;;;19.10;48.90;;;;;;5024991;28;114913;-81
2023/10/07 10:41:32;;;;;;;;;;;19.10;49.00;;;;;;5025087;28;116542;-82
2023/10/07 10:44:06;;;;;;;;;;;19.10;49.00;;;;;;5025970;28;114686;-81
2023/10/07 10:46:44;;;;;;;;;;;19.10;48.90;;;;;;5008228;28;114195;-82
2023/10/07 10:49:12;;;;;;;;;;;19.10;48.70;;;;;;5007525;28;115766;-82
2023/10/07 10:51:45;;;;;;;;;;;19.10;48.80;;;;;;4990300;28;117206;-81
2023/10/07 10:54:13;;;;;;;;;;;19.20;48.80;;;;;;4992152;28;114461;-81
2023/10/07 10:56:55;;;;;;;;;;;19.30;48.80;;;;;;5026250;28;114467;-81
2023/10/07 10:59:43;;;;;;;;;;;19.30;48.60;;;;;;5024865;28;115738;-82
2023/10/07 11:02:11;;;;;;;;;;;19.40;48.30;;;;;;5025034;28;114765;-81
2023/10/07 11:04:39;;;;;;;;;;;19.40;48.20;;;;;;5007190;27;114477;-82
2023/10/07 11:07:07;;;;;;;;;;;19.40;48.10;;;;;;5025460;28;114299;-82
2023/10/07 11:09:37;;;;;;;;;;;19.40;47.80;;;;;;5025549;28;114802;-82
2023/10/07 11:12:09;;;;;;;;;;;19.50;47.70;;;;;;4990666;28;114538;-82
2023/10/07 11:14:38;;;;;;;;;;;19.50;47.70;;;;;;5007717;28;114172;-83
2023/10/07 11:17:05;;;;;;;;;;;19.60;47.50;;;;;;5007467;28;114090;-82
2023/10/07 11:19:40;;;;;;;;;;;19.60;47.80;;;;;;5024702;28;114923;-81
2023/10/07 11:22:07;;;;;;;;;;;19.60;47.70;;;;;;5006831;28;114439;-82
2023/10/07 11:24:35;;;;;;;;;;;19.70;47.50;;;;;;5007449;28;114349;-82
2023/10/07 11:27:02;;;;;;;;;;;19.70;47.30;;;;;;5025237;28;114704;-82
2023/10/07 11:29:32;;;;;;;;;;;19.60;47.30;;;;;;5006478;28;114988;-82
2023/10/07 11:32:00;;;;;;;;;;;19.70;47.30;;;;;;5024571;28;114699;-82
2023/10/07 11:34:45;;;;;;;;;;;19.70;47.20;;;;;;5025436;28;114418;-81
2023/10/07 11:37:13;;;;;;;;;;;19.70;47.10;;;;;;5025434;28;114178;-82
2023/10/07 11:39:45;;;;;;;;;;;19.70;46.60;;;;;;5006327;28;116040;-81
2023/10/07 11:42:12;;;;;;;;;;;19.70;46.90;;;;;;5024386;28;115243;-81
2023/10/07 11:44:41;;;;;;;;;;;19.60;47.10;;;;;;5007587;28;114236;-81
2023/10/07 11:47:10;;;;;;;;;;;19.70;47.00;;;;;;5025780;28;114577;-80
2023/10/07 11:49:39;;;;;;;;;;;19.60;47.10;;;;;;5006880;28;115609;-82
2023/10/07 11:52:06;;;;;;;;;;;19.60;46.90;;;;;;5025963;28;114594;-81
2023/10/07 11:54:34;;;;;;;;;;;19.60;47.00;;;;;;5024778;28;114198;-81
2023/10/07 11:57:02;;;;;;;;;;;19.50;46.70;;;;;;5025516;28;114118;-81
2023/10/07 11:59:30;;;;;;;;;;;19.40;46.50;;;;;;5006276;28;115145;-81
2023/10/07 12:01:57;;;;;;;;;;;19.30;46.70;;;;;;5024045;28;114622;-82
2023/10/07 12:04:26;;;;;;;;;;;19.30;46.80;;;;;;5025099;28;114235;-82
2023/10/07 12:06:53;;;;;;;;;;;19.30;46.60;;;;;;5006823;28;114228;-81
2023/10/07 12:09:21;;;;;;;;;;;19.30;46.90;;;;;;5006320;28;118139;-81
2023/10/07 12:11:49;;;;;;;;;;;19.30;46.80;;;;;;5024376;28;114804;-82
2023/10/07 12:14:19;;;;;;;;;;;19.30;46.80;;;;;;5024667;28;114171;-81
2023/10/07 12:16:47;;;;;;;;;;;19.40;46.90;;;;;;5006622;28;114388;-81
2023/10/07 12:19:17;;;;;;;;;;;19.40;46.90;;;;;;4989193;28;116231;-81
2023/10/07 12:21:45;;;;;;;;;;;19.50;46.70;;;;;;5005561;28;114614;-82
2023/10/07 12:24:12;;;;;;;;;;;19.50;46.50;;;;;;5024647;28;114360;-81
2023/10/07 12:26:39;;;;;;;;;;;19.60;46.70;;;;;;5006425;28;114369;-83
2023/10/07 12:29:06;;;;;;;;;;;19.60;46.70;;;;;;5023383;28;115927;-80
2023/10/07 12:31:33;;;;;;;;;;;19.60;46.40;;;;;;5022853;28;115350;-81
2023/10/07 12:34:02;;;;;;;;;;;19.60;46.30;;;;;;5023799;28;114216;-82
2023/10/07 12:36:30;;;;;;;;;;;19.70;46.30;;;;;;5005920;28;114293;-81
2023/10/07 12:38:57;;;;;;;;;;;19.70;46.30;;;;;;5023345;28;114884;-82
2023/10/07 12:41:25;;;;;;;;;;;19.70;46.30;;;;;;5023208;28;115317;-81
2023/10/07 12:43:53;;;;;;;;;;;19.80;46.20;;;;;;5005898;28;114532;-81
2023/10/07 12:46:20;;;;;;;;;;;19.80;46.20;;;;;;5024146;28;114297;-80
2023/10/07 12:48:47;;;;;;;;;;;19.80;46.30;;;;;;5023272;28;114961;-81
2023/10/07 12:51:16;;;;;;;;;;;19.90;46.10;;;;;;5005311;28;116853;-82
2023/10/07 12:53:45;;;;;;;;;;;19.90;45.80;;;;;;5005848;28;114210;-82
2023/10/07 12:56:12;;;;;;;;;;;19.90;45.90;;;;;;5024052;28;114384;-82
2023/10/07 12:58:42;;;;;;;;;;;19.90;45.90;;;;;;5005605;28;114961;-82
2023/10/07 13:01:12;;;;;;;;;;;20.00;45.90;;;;;;5023346;28;115151;-82
2023/10/07 13:03:47;;;;;;;;;;;19.90;45.90;;;;;;5023875;28;114093;-82
2023/10/07 13:06:15;;;;;;;;;;;19.90;45.80;;;;;;5005442;28;114383;-82
2023/10/07 13:08:43;;;;;;;;;;;19.80;46.00;;;;;;5004005;28;117634;-82
2023/10/07 13:11:11;;;;;;;;;;;19.90;46.10;;;;;;5023017;28;114758;-82
2023/10/07 13:13:42;;;;;;;;;;;19.80;46.00;;;;;;5023494;28;114291;-81
2023/10/07 13:16:12;;;;;;;;;;;19.80;46.00;;;;;;5005251;28;114605;-82
2023/10/07 13:18:40;;;;;;;;;;;19.80;46.00;;;;;;4988732;28;115038;-81
2023/10/07 13:21:13;;;;;;;;;;;19.80;46.10;;;;;;4987756;28;115209;-83
2023/10/07 13:23:40;;;;;;;;;;;19.70;46.10;;;;;;4973840;28;114164;-82
2023/10/07 13:26:09;;;;;;;;;;;19.60;46.10;;;;;;5023896;28;114172;-82
2023/10/07 13:28:38;;;;;;;;;;;19.50;46.30;;;;;;5023824;27;115519;-82
2023/10/07 13:31:07;;;;;;;;;;;19.50;46.40;;;;;;4991745;28;115365;-81
2023/10/07 13:33:36;;;;;;;;;;;19.50;46.50;;;;;;5009124;28;114051;-81
2023/10/07 13:36:03;;;;;;;;;;;19.40;46.60;;;;;;5009015;28;114481;-82
2023/10/07 13:38:31;;;;;;;;;;;19.30;46.70;;;;;;5008139;28;114932;-82
2023/10/07 13:41:00;;;;;;;;;;;19.30;46.80;;;;;;5026243;28;115529;-81
2023/10/07 13:43:27;;;;;;;;;;;19.30;46.90;;;;;;4975897;28;114377;-81
2023/10/07 13:45:54;;;;;;;;;;;19.30;47.00;;;;;;4992211;28;114721;-81
2023/10/07 13:48:22;;;;;;;;;;;19.30;47.10;;;;;;5008262;28;115582;-81
2023/10/07 13:50:49;;;;;;;;;;;19.30;47.20;;;;;;5008322;28;117666;-82
2023/10/07 13:53:16;;;;;;;;;;;19.20;47.30;;;;;;5008722;28;114436;-82
2023/10/07 13:58:12;;;;;;;;;;;19.20;47.50;;;;;;5025176;28;116298;-82
2023/10/07 14:00:53;;;;;;;;;;;19.10;47.50;;;;;;5025956;28;115489;-81
2023/10/07 14:03:30;;;;;;;;;;;19.10;47.60;;;;;;5008645;28;114433;-80
2023/10/07 14:06:02;;;;;;;;;;;19.10;47.70;;;;;;5009986;28;114485;-81
2023/10/07 14:08:31;;;;;;;;;;;19.10;47.90;;;;;;5007956;28;114853;-82
2023/10/07 14:10:59;;;;;;;;;;;19.00;47.90;;;;;;5007606;28;117684;-82
2023/10/07 14:13:31;;;;;;;;;;;19.10;48.00;;;;;;5026659;28;114333;-81
2023/10/07 14:16:00;;;;;;;;;;;19.10;48.10;;;;;;5009692;28;114265;-82
2023/10/07 14:18:45;;;;;;;;;;;19.00;48.10;;;;;;4996529;28;115998;-83
2023/10/07 14:21:12;;;;;;;;;;;19.00;48.10;;;;;;5025152;28;114522;-81
2023/10/07 14:23:39;;;;;;;;;;;19.00;48.20;;;;;;5007767;28;114206;-82
2023/10/07 14:26:09;;;;;;;;;;;19.00;48.30;;;;;;5025983;28;115871;-82
2023/10/07 14:28:36;;;;;;;;;;;19.00;48.30;;;;;;5007860;28;115278;-82
2023/10/07 14:31:08;;;;;;;;;;;19.00;48.40;;;;;;5025297;28;115704;-83
2023/10/07 14:33:35;;;;;;;;;;;18.90;48.60;;;;;;5008128;28;114474;-82
2023/10/07 14:36:06;;;;;;;;;;;18.90;48.60;;;;;;5026204;28;114342;-82
2023/10/07 14:38:34;;;;;;;;;;;18.90;48.70;;;;;;5025521;28;115351;-82
2023/10/07 14:41:01;;;;;;;;;;;18.90;48.70;;;;;;5006162;28;115990;-82
2023/10/07 14:43:29;;;;;;;;;;;18.90;48.80;;;;;;5008353;28;114176;-80
2023/10/07 14:45:56;;;;;;;;;;;18.90;48.80;;;;;;5025954;28;114182;-81
2023/10/07 14:48:24;;;;;;;;;;;18.90;48.90;;;;;;4973689;28;117739;-82
2023/10/07 14:50:51;;;;;;;;;;;18.90;49.10;;;;;;5006985;28;115010;-81
2023/10/07 14:53:18;;;;;;;;;;;18.90;49.10;;;;;;5026169;28;114178;-82
2023/10/07 14:55:45;;;;;;;;;;;18.80;49.10;;;;;;5026072;28;113985;-82
2023/10/07 14:58:15;;;;;;;;;;;18.80;49.20;;;;;;5025155;28;115427;-82
2023/10/07 15:00:48;;;;;;;;;;;18.80;49.20;;;;;;5025316;28;115491;-81
2023/10/07 15:03:16;;;;;;;;;;;18.80;49.30;;;;;;5007751;28;114431;-81
2023/10/07 15:05:44;;;;;;;;;;;18.80;49.40;;;;;;5026255;28;114339;-82
2023/10/07 15:08:12;;;;;;;;;;;18.80;49.40;;;;;;4990637;28;114875;-82
2023/10/07 15:10:42;;;;;;;;;;;18.80;49.40;;;;;;5025036;28;114598;-81
2023/10/07 15:13:10;;;;;;;;;;;18.80;49.50;;;;;;5024964;28;114297;-82